This is the latest recevied weather packets stored in our database for station/object SP9MLI-1. If no packets are shown the sender has not sent any weather packets the latest 10 day(s).
| Time | Temp. | Humidity | Pressure | Rain* | Wind** | Luminosity | Snow |
|---|---|---|---|---|---|---|---|
| 1777423091 | -2.78° C | 97% | 1024.2 hPa | 0 mm | - | - | - |
| 1777404193 | 3.89° C | 67% | 1024.5 hPa | 0 mm | - | - | - |
| 1777396092 | 6.11° C | 57% | 1024.8 hPa | 0 mm | - | - | - |
| 1777395195 | 6.67° C | 58% | 1024.8 hPa | 0 mm | - | - | - |
| 1777392492 | 7.78° C | 55% | 1025.2 hPa | 0 mm | - | - | - |
| 1777388892 | 9.44° C | 55% | 1025.8 hPa | 0 mm | - | - | - |
| 1777378093 | 10° C | 54% | 1025.8 hPa | 0 mm | - | - | - |
| 1777377193 | 10.56° C | 55% | 1026.2 hPa | 0 mm | - | - | - |
| 1777372693 | 12.78° C | 50% | 1026.9 hPa | 0 mm | - | - | - |
| 1777371792 | 12.78° C | 50% | 1026.9 hPa | 0 mm | - | - | - |
| 1777370892 | 12.78° C | 50% | 1026.9 hPa | 0 mm | - | - | - |
| 1777369094 | 12.78° C | 51% | 1026.9 hPa | 0 mm | - | - | - |
| 1777367292 | 12.22° C | 50% | 1026.5 hPa | 0 mm | - | - | - |
| 1777365493 | 13.33° C | 46% | 1026.5 hPa | 0 mm | - | - | - |
| 1777364592 | 8.89° C | 57% | 1025.5 hPa | 0 mm | - | - | - |
| 1777363692 | 8.89° C | 57% | 1025.5 hPa | 0 mm | - | - | - |
| 1777362792 | 8.89° C | 57% | 1025.5 hPa | 0 mm | - | - | - |
| 1777361896 | 8.89° C | 57% | 1025.5 hPa | 0 mm | - | - | - |
| 1777360995 | 8.89° C | 56% | 1025.5 hPa | 0 mm | - | - | - |
| 1777360092 | 10° C | 57% | 1025.5 hPa | 0 mm | - | - | - |
| 1777358293 | 10° C | 50% | 1024.8 hPa | 0 mm | - | - | - |
| 1777357392 | 6.11° C | 73% | 1023.1 hPa | 0 mm | - | - | - |
| 1777356492 | 6.11° C | 73% | 1023.1 hPa | 0 mm | - | - | - |
| 1777354698 | 6.11° C | 73% | 1023.1 hPa | 0 mm | - | - | - |
| 1777353792 | 6.67° C | 75% | 1023.1 hPa | 0 mm | - | - | - |
* Rain latest hour (hover to see other rain measurements)
** Current wind speed in m/s (hover to see current wind gust speed)